Droylsden, United Kingdom
Current Conditions -  °F | °C
As of 4:50 AM on Friday 26 Dec 2014 (Local Time) from EGCC Reporting Station
Rain Showers Rain Showers  
Wind Chill: 37°   Ceiling: 3300
Heat Index: 37°   Visibility: 5mi
Dew Point: 37°   Wind: 3mph
Humidity: 100%   Direction: 190°S
Pressure: 30.39"   Gusts: NA
Location:  53.48°N, 2.15°W
Report Text: EGCC 260450Z 19003KT 8000 -SHRA SCT021 BKN033 03/03 Q1029 NOSIG
Loading
Personal Weather Stations






























Interactive Weather Map New forecast layout! Learn more

10-Day Weather Forecast

Advertisements
Track Severe Weather on mobile